Stanardsville, Virginia
Current Conditions -  °F | °C
As of 3:53 PM on Tuesday 27 Jan 2015 (Local Time) from KCHO Reporting Station
Scattered Clouds Scattered Clouds  
Wind Chill: 29°   Ceiling: Unl
Heat Index: 36°   Visibility: 10mi
Dew Point: 21°   Wind: 9mph
Humidity: 55%   Direction: 350°N
Pressure: 29.82"   Gusts: NA
Location:  38.3°N, 78.44°W
Report Text: KCHO 272053Z 35008KT 10SM SCT060 02/M06 A2982 RMK AO2 SLP099 T00221061 53004
Loading
Personal Weather Stations






























Interactive Weather Map New forecast layout! Learn more

10-Day Weather Forecast

Advertisements
Track Severe Weather on mobile